createdAt,value
2018-08-31T00:00:23.212Z,97.10
2018-08-31T00:02:54.886Z,97.10
2018-08-31T00:05:35.380Z,97.60
2018-08-31T00:08:14.923Z,97.70
2018-08-31T00:10:53.931Z,98.10
2018-08-31T00:13:22.340Z,98.20
2018-08-31T00:15:51.444Z,97.90
2018-08-31T00:18:19.921Z,97.90
2018-08-31T00:20:48.469Z,97.80
2018-08-31T00:23:16.952Z,97.90
2018-08-31T00:26:11.379Z,98.00
2018-08-31T00:29:12.688Z,97.70
2018-08-31T00:34:05.170Z,97.80
2018-08-31T00:38:52.132Z,98.00
2018-08-31T00:41:36.569Z,98.40
2018-08-31T00:46:19.455Z,98.70
2018-08-31T00:48:48.104Z,98.80
2018-08-31T00:51:16.528Z,98.80
2018-08-31T00:53:45.072Z,98.90
2018-08-31T00:56:14.105Z,98.50
2018-08-31T00:58:42.495Z,98.10
2018-08-31T01:01:11.192Z,98.10
2018-08-31T01:03:39.784Z,98.00
2018-08-31T01:06:08.413Z,98.00
2018-08-31T01:08:36.952Z,98.00
2018-08-31T01:11:05.379Z,98.00
2018-08-31T01:13:33.841Z,98.00
2018-08-31T01:16:02.236Z,98.10
2018-08-31T01:18:30.792Z,98.00
2018-08-31T01:20:59.287Z,98.00
2018-08-31T01:23:27.720Z,98.20
2018-08-31T01:25:56.153Z,98.20
2018-08-31T01:28:24.536Z,97.90
2018-08-31T01:30:53.064Z,97.80
2018-08-31T01:33:21.692Z,98.10
2018-08-31T01:35:50.237Z,98.10
2018-08-31T01:38:18.625Z,98.40
2018-08-31T01:40:47.188Z,98.20
2018-08-31T01:43:15.576Z,98.20
2018-08-31T01:45:44.747Z,98.00
2018-08-31T01:48:13.546Z,98.20
2018-08-31T01:50:47.462Z,98.10
2018-08-31T01:53:15.856Z,98.20
2018-08-31T01:55:44.427Z,98.10
2018-08-31T01:58:12.937Z,98.00
2018-08-31T02:00:41.649Z,98.10
2018-08-31T02:03:10.184Z,98.00
2018-08-31T02:05:38.795Z,97.90
2018-08-31T02:08:07.496Z,98.10
2018-08-31T02:10:35.992Z,97.90
2018-08-31T02:13:04.527Z,97.60
2018-08-31T02:15:32.893Z,97.60
2018-08-31T02:18:02.072Z,97.60
2018-08-31T02:20:30.584Z,97.50
2018-08-31T02:22:59.669Z,97.50
2018-08-31T02:25:29.012Z,97.50
2018-08-31T02:27:57.456Z,97.40
2018-08-31T02:30:26.630Z,97.30
2018-08-31T02:32:55.132Z,97.40
2018-08-31T02:35:23.517Z,97.30
2018-08-31T02:37:51.901Z,97.40
2018-08-31T02:40:20.261Z,97.30
2018-08-31T02:42:49.013Z,97.40
2018-08-31T02:45:17.684Z,97.30
2018-08-31T02:47:47.186Z,97.70
2018-08-31T02:50:16.282Z,97.50
2018-08-31T02:52:45.361Z,97.20
2018-08-31T02:55:13.983Z,97.70
2018-08-31T02:57:42.716Z,97.20
2018-08-31T03:00:11.335Z,97.40
2018-08-31T03:02:39.927Z,97.50
2018-08-31T03:05:08.380Z,97.40
2018-08-31T03:07:36.924Z,97.60
2018-08-31T03:10:06.061Z,97.50
2018-08-31T03:12:34.613Z,97.70
2018-08-31T03:15:03.557Z,97.80
2018-08-31T03:17:32.003Z,97.70
2018-08-31T03:20:00.413Z,97.50
2018-08-31T03:22:28.836Z,97.40
2018-08-31T03:24:57.296Z,97.50
2018-08-31T03:27:25.777Z,97.50
2018-08-31T03:29:54.240Z,97.60
2018-08-31T03:32:22.804Z,97.50
2018-08-31T03:34:51.833Z,97.80
2018-08-31T03:37:20.380Z,97.60
2018-08-31T03:39:49.669Z,97.50
2018-08-31T03:42:18.364Z,97.30
2018-08-31T03:44:46.840Z,97.10
2018-08-31T03:47:15.956Z,97.30
2018-08-31T03:49:44.408Z,97.40
2018-08-31T03:52:12.915Z,97.40
2018-08-31T03:54:42.149Z,97.30
2018-08-31T03:57:11.760Z,97.50
2018-08-31T03:59:40.416Z,97.60
2018-08-31T04:02:09.681Z,97.70
2018-08-31T04:04:38.760Z,97.70
2018-08-31T04:07:07.524Z,97.70
2018-08-31T04:09:36.049Z,97.80
2018-08-31T04:12:04.696Z,97.80
2018-08-31T04:14:33.140Z,97.70
2018-08-31T04:17:01.951Z,97.60
2018-08-31T04:19:30.355Z,97.60
2018-08-31T04:21:58.852Z,97.60
2018-08-31T04:24:27.588Z,97.60
2018-08-31T04:26:56.085Z,97.50
2018-08-31T04:29:24.568Z,97.40
2018-08-31T04:31:53.049Z,97.50
2018-08-31T04:34:21.522Z,97.50
2018-08-31T04:36:49.937Z,97.50
2018-08-31T04:39:18.574Z,97.60
2018-08-31T04:41:47.663Z,97.60
2018-08-31T04:44:16.341Z,97.70
2018-08-31T04:46:44.956Z,97.80
2018-08-31T04:49:13.469Z,97.90
2018-08-31T04:51:41.957Z,97.80
2018-08-31T04:54:10.344Z,97.60
2018-08-31T04:56:39.941Z,97.70
2018-08-31T04:59:08.695Z,97.70
2018-08-31T05:01:37.159Z,97.60
2018-08-31T05:04:05.776Z,97.80
2018-08-31T05:06:34.547Z,97.70
2018-08-31T05:09:03.140Z,97.90
2018-08-31T05:11:31.757Z,97.60
2018-08-31T05:14:00.304Z,97.50
2018-08-31T05:16:29.019Z,97.50
2018-08-31T05:18:57.485Z,97.40
2018-08-31T05:21:26.011Z,97.30
2018-08-31T05:23:55.128Z,97.20
2018-08-31T05:26:24.751Z,96.90
2018-08-31T05:28:53.378Z,97.00
2018-08-31T05:31:21.786Z,96.90
2018-08-31T05:33:50.475Z,96.90
2018-08-31T05:36:19.037Z,96.80
2018-08-31T05:38:48.313Z,96.90
2018-08-31T05:41:16.689Z,96.80
2018-08-31T05:43:47.108Z,96.80
2018-08-31T05:46:16.221Z,97.00
2018-08-31T05:48:44.672Z,97.10
2018-08-31T05:51:13.058Z,97.10
2018-08-31T05:53:41.512Z,96.90
2018-08-31T05:56:09.969Z,96.80
2018-08-31T05:58:38.569Z,96.80
2018-08-31T06:01:07.484Z,96.70
2018-08-31T06:03:35.981Z,96.40
2018-08-31T06:06:05.269Z,96.20
2018-08-31T06:08:33.808Z,95.60
2018-08-31T06:11:02.251Z,95.60
2018-08-31T06:13:30.840Z,95.60
2018-08-31T06:15:59.662Z,94.50
2018-08-31T06:18:28.812Z,94.70
2018-08-31T06:21:00.374Z,94.80
2018-08-31T06:23:29.492Z,94.30
2018-08-31T06:25:58.223Z,94.40
2018-08-31T06:28:26.882Z,94.30
2018-08-31T06:30:55.404Z,94.60
2018-08-31T06:33:24.539Z,94.10
2018-08-31T06:35:53.101Z,94.30
2018-08-31T06:38:21.653Z,94.30
2018-08-31T06:40:50.054Z,94.40
2018-08-31T06:43:18.429Z,94.60
2018-08-31T06:45:47.113Z,93.80
2018-08-31T06:48:15.508Z,93.50
2018-08-31T06:50:43.989Z,93.30
2018-08-31T06:53:12.566Z,93.40
2018-08-31T06:55:40.989Z,93.40
2018-08-31T06:58:09.469Z,92.10
2018-08-31T07:00:38.491Z,92.50
2018-08-31T07:03:07.513Z,92.00
2018-08-31T07:05:35.920Z,92.40
2018-08-31T07:08:04.494Z,92.40
2018-08-31T07:10:32.916Z,92.10
2018-08-31T07:13:01.444Z,91.70
2018-08-31T07:15:29.827Z,91.70
2018-08-31T07:17:58.253Z,91.90
2018-08-31T07:20:26.649Z,91.60
2018-08-31T07:22:55.757Z,92.00
2018-08-31T07:25:24.164Z,91.70
2018-08-31T07:27:52.624Z,91.10
2018-08-31T07:30:21.124Z,90.30
2018-08-31T07:32:49.955Z,90.00
2018-08-31T07:35:18.950Z,90.30
2018-08-31T07:37:47.574Z,90.10
2018-08-31T07:40:16.218Z,90.60
2018-08-31T07:42:44.965Z,90.10
2018-08-31T07:45:13.550Z,90.80
2018-08-31T07:47:41.957Z,90.40
2018-08-31T07:50:10.604Z,90.20
2018-08-31T07:52:39.076Z,89.40
2018-08-31T07:55:07.589Z,90.10
2018-08-31T07:57:36.072Z,90.40
2018-08-31T08:00:04.571Z,90.90
2018-08-31T08:02:33.036Z,90.60
2018-08-31T08:05:01.705Z,91.40
2018-08-31T08:07:30.471Z,90.30
2018-08-31T08:09:59.032Z,90.30
2018-08-31T08:12:28.401Z,90.30
2018-08-31T08:14:56.905Z,90.00
2018-08-31T08:17:25.331Z,89.60
2018-08-31T08:19:53.809Z,89.40
2018-08-31T08:22:22.800Z,89.30
2018-08-31T08:24:52.052Z,90.00
2018-08-31T08:27:20.643Z,90.70
2018-08-31T08:29:49.100Z,90.70
2018-08-31T08:32:17.489Z,90.10
2018-08-31T08:34:47.056Z,88.60
2018-08-31T08:37:15.439Z,89.30
2018-08-31T08:39:44.152Z,88.90
2018-08-31T08:42:12.651Z,88.70
2018-08-31T08:44:41.041Z,88.10
2018-08-31T08:47:09.492Z,87.60
2018-08-31T08:49:37.920Z,90.20
2018-08-31T08:52:07.745Z,88.40
2018-08-31T08:54:36.296Z,88.60
2018-08-31T08:57:04.845Z,88.80
2018-08-31T08:59:33.462Z,89.70
2018-08-31T09:02:01.848Z,84.30
2018-08-31T09:04:30.496Z,86.00
2018-08-31T09:06:58.860Z,84.30
2018-08-31T09:09:28.232Z,85.20
2018-08-31T09:11:56.956Z,82.40
2018-08-31T09:14:25.480Z,81.70
2018-08-31T09:16:54.257Z,82.80
2018-08-31T09:19:22.724Z,83.10
2018-08-31T09:21:51.182Z,82.90
2018-08-31T09:24:19.796Z,82.70
2018-08-31T09:26:51.121Z,82.80
2018-08-31T09:29:19.948Z,81.30
2018-08-31T09:31:48.511Z,81.10
2018-08-31T09:34:17.045Z,82.60
2018-08-31T09:36:45.493Z,79.30
2018-08-31T09:39:14.072Z,81.50
2018-08-31T09:41:42.624Z,80.10
2018-08-31T09:44:11.237Z,78.40
2018-08-31T09:46:39.781Z,76.90
2018-08-31T09:49:08.281Z,76.50
2018-08-31T09:51:36.860Z,75.80
2018-08-31T09:54:05.366Z,75.20
2018-08-31T09:56:33.859Z,78.30
2018-08-31T09:59:02.303Z,76.30
2018-08-31T10:01:33.626Z,75.40
2018-08-31T10:04:02.774Z,73.80
2018-08-31T10:06:32.183Z,72.10
2018-08-31T10:09:01.193Z,70.30
2018-08-31T10:11:29.999Z,70.90
2018-08-31T10:13:58.496Z,73.80
2018-08-31T10:16:27.047Z,69.30
2018-08-31T10:18:55.629Z,69.20
2018-08-31T10:21:24.264Z,68.50
2018-08-31T10:23:52.992Z,64.90
2018-08-31T10:26:21.688Z,65.70
2018-08-31T10:28:50.174Z,62.00
2018-08-31T10:31:18.553Z,62.40
2018-08-31T10:33:46.963Z,61.90
2018-08-31T10:36:15.988Z,60.50
2018-08-31T10:38:45.117Z,62.30
2018-08-31T10:41:13.565Z,59.80
2018-08-31T10:43:41.985Z,62.40
2018-08-31T10:46:11.211Z,59.40
2018-08-31T10:48:39.724Z,58.40
2018-08-31T10:51:08.512Z,56.90
2018-08-31T10:53:37.212Z,57.00
2018-08-31T10:56:05.782Z,58.70
2018-08-31T10:58:34.373Z,56.80
2018-08-31T11:01:03.676Z,55.50
2018-08-31T11:03:32.845Z,55.30
2018-08-31T11:06:01.276Z,51.70
2018-08-31T11:08:30.345Z,52.90
2018-08-31T11:10:59.680Z,55.20
2018-08-31T11:13:28.152Z,58.10
2018-08-31T11:15:56.586Z,57.30
2018-08-31T11:18:25.092Z,55.90
2018-08-31T11:20:54.007Z,58.70
2018-08-31T11:23:22.887Z,60.80
2018-08-31T11:25:51.301Z,61.50
2018-08-31T11:28:20.284Z,61.40
2018-08-31T11:30:48.843Z,63.10
2018-08-31T11:33:17.410Z,66.30
2018-08-31T11:35:46.104Z,64.90
2018-08-31T11:38:15.125Z,63.50
2018-08-31T11:40:43.727Z,63.50
2018-08-31T11:43:12.167Z,63.10
2018-08-31T11:45:40.664Z,62.90
2018-08-31T11:48:09.217Z,64.50
2018-08-31T11:50:37.690Z,61.50
2018-08-31T11:53:06.868Z,63.70
2018-08-31T11:55:35.528Z,61.20
2018-08-31T11:58:04.100Z,62.10
2018-08-31T12:00:32.656Z,61.40
2018-08-31T12:03:01.094Z,60.00
2018-08-31T12:05:29.861Z,60.10
2018-08-31T12:07:58.379Z,62.70
2018-08-31T12:10:26.841Z,64.20
2018-08-31T12:12:55.493Z,66.30
2018-08-31T12:15:24.189Z,67.50
2018-08-31T12:17:52.572Z,68.30
2018-08-31T12:20:21.261Z,69.50
2018-08-31T12:22:49.902Z,68.80
2018-08-31T12:25:18.809Z,70.40
2018-08-31T12:27:47.473Z,70.90
2018-08-31T12:30:16.984Z,71.40
2018-08-31T12:32:45.505Z,69.90
2018-08-31T12:35:13.973Z,71.70
2018-08-31T12:37:42.584Z,70.40
2018-08-31T12:40:11.127Z,68.10
2018-08-31T12:42:39.611Z,67.90
2018-08-31T12:45:08.328Z,67.80
2018-08-31T12:47:36.997Z,65.50
2018-08-31T12:50:05.476Z,67.60
2018-08-31T12:52:34.784Z,63.20
2018-08-31T12:55:04.006Z,64.50
2018-08-31T12:57:32.633Z,65.60
2018-08-31T13:00:01.992Z,64.70
2018-08-31T13:02:31.907Z,64.60
2018-08-31T13:05:01.702Z,64.20
2018-08-31T13:07:30.269Z,62.10
2018-08-31T13:09:58.901Z,62.80
2018-08-31T13:12:27.429Z,63.50
2018-08-31T13:14:55.848Z,63.40
2018-08-31T13:17:24.291Z,63.30
2018-08-31T13:19:53.523Z,62.60
2018-08-31T13:22:22.726Z,64.50
2018-08-31T13:24:51.460Z,63.80
2018-08-31T13:27:20.536Z,63.00
2018-08-31T13:29:49.047Z,62.00
2018-08-31T13:32:17.639Z,61.40
2018-08-31T13:34:46.160Z,59.80
2018-08-31T13:37:15.174Z,61.70
2018-08-31T13:39:43.724Z,61.60
2018-08-31T13:42:12.626Z,62.80
2018-08-31T13:44:41.033Z,59.90
2018-08-31T13:47:10.210Z,61.50
2018-08-31T13:49:38.680Z,62.30
2018-08-31T13:52:07.119Z,61.00
2018-08-31T13:54:35.653Z,60.00
2018-08-31T13:57:04.129Z,58.80
2018-08-31T13:59:32.575Z,58.60
2018-08-31T14:02:01.165Z,57.30
2018-08-31T14:04:30.313Z,57.70
2018-08-31T14:06:59.685Z,58.20
2018-08-31T14:09:28.249Z,58.70
2018-08-31T14:11:56.652Z,58.80
2018-08-31T14:14:25.720Z,57.80
2018-08-31T14:16:54.199Z,57.80
2018-08-31T14:19:22.628Z,57.20
2018-08-31T14:21:51.044Z,57.60
2018-08-31T14:24:19.465Z,58.80
2018-08-31T14:26:47.888Z,57.10
2018-08-31T14:29:16.536Z,59.20
2018-08-31T14:31:45.201Z,58.10
2018-08-31T14:34:13.610Z,57.70
2018-08-31T14:36:42.171Z,57.80
2018-08-31T14:39:10.983Z,59.40
2018-08-31T14:41:39.503Z,58.20
2018-08-31T14:44:08.712Z,58.10
2018-08-31T14:46:38.560Z,58.80
2018-08-31T14:49:07.458Z,59.50
2018-08-31T14:51:35.954Z,59.90
2018-08-31T14:54:04.728Z,61.50
2018-08-31T14:56:33.276Z,59.20
2018-08-31T14:59:02.709Z,60.70
2018-08-31T15:01:31.205Z,63.50
2018-08-31T15:03:59.722Z,64.60
2018-08-31T15:06:28.083Z,63.60
2018-08-31T15:08:56.488Z,64.20
2018-08-31T15:11:24.989Z,63.80
2018-08-31T15:13:53.693Z,65.20
2018-08-31T15:16:22.192Z,66.90
2018-08-31T15:18:50.760Z,63.20
2018-08-31T15:21:19.435Z,63.30
2018-08-31T15:23:47.900Z,63.30
2018-08-31T15:26:16.406Z,65.10
2018-08-31T15:28:44.812Z,64.70
2018-08-31T15:31:13.380Z,64.00
2018-08-31T15:33:42.677Z,63.30
2018-08-31T15:36:11.746Z,65.90
2018-08-31T15:38:40.637Z,65.80
2018-08-31T15:41:09.928Z,63.80
2018-08-31T15:43:38.755Z,62.80
2018-08-31T15:46:07.186Z,64.00
2018-08-31T15:48:35.697Z,61.80
2018-08-31T15:51:04.184Z,63.30
2018-08-31T15:53:32.687Z,63.60
2018-08-31T15:56:01.190Z,62.70
2018-08-31T15:58:29.765Z,61.70
2018-08-31T16:00:58.152Z,60.60
2018-08-31T16:03:26.912Z,59.50
2018-08-31T16:05:55.372Z,59.70
2018-08-31T16:08:24.313Z,60.50
2018-08-31T16:10:52.751Z,60.20
2018-08-31T16:13:21.449Z,61.20
2018-08-31T16:15:50.132Z,60.00
2018-08-31T16:18:18.761Z,59.80
2018-08-31T16:20:47.512Z,60.60
2018-08-31T16:23:16.080Z,60.20
2018-08-31T16:25:45.092Z,61.20
2018-08-31T16:28:13.512Z,62.10
2018-08-31T16:30:42.669Z,64.50
2018-08-31T16:33:11.139Z,62.60
2018-08-31T16:35:39.560Z,62.40
2018-08-31T16:38:08.717Z,62.20
2018-08-31T16:40:37.196Z,61.40
2018-08-31T16:43:05.904Z,61.30
2018-08-31T16:45:35.088Z,63.00
2018-08-31T16:48:03.677Z,63.20
2018-08-31T16:50:32.185Z,61.80
2018-08-31T16:53:00.681Z,62.90
2018-08-31T16:55:29.121Z,64.30
2018-08-31T16:57:58.658Z,63.20
2018-08-31T17:00:27.204Z,62.00
2018-08-31T17:02:55.630Z,62.80
2018-08-31T17:05:24.424Z,62.70
2018-08-31T17:07:52.962Z,63.10
2018-08-31T17:10:21.354Z,63.10
2018-08-31T17:12:50.357Z,64.80
2018-08-31T17:15:20.938Z,64.20
2018-08-31T17:17:52.722Z,65.20
2018-08-31T17:20:21.365Z,65.70
2018-08-31T17:22:50.252Z,64.90
2018-08-31T17:25:18.806Z,66.60
2018-08-31T17:27:52.780Z,66.40
2018-08-31T17:30:23.020Z,66.40
2018-08-31T17:32:56.788Z,66.30
2018-08-31T17:35:30.541Z,66.70
2018-08-31T17:38:00.390Z,66.70
2018-08-31T17:40:29.222Z,67.50
2018-08-31T17:42:57.924Z,67.10
2018-08-31T17:45:27.143Z,68.10
2018-08-31T17:47:55.766Z,68.20
2018-08-31T17:50:24.299Z,70.50
2018-08-31T17:52:52.729Z,70.00
2018-08-31T17:55:21.452Z,70.40
2018-08-31T17:57:49.896Z,69.40
2018-08-31T18:00:18.436Z,70.10
2018-08-31T18:02:46.823Z,70.10
2018-08-31T18:05:15.249Z,71.20
2018-08-31T18:07:44.161Z,72.20
2018-08-31T18:10:12.625Z,71.70
2018-08-31T18:12:40.996Z,73.90
2018-08-31T18:15:09.609Z,74.30
2018-08-31T18:17:38.688Z,75.20
2018-08-31T18:20:07.152Z,74.90
2018-08-31T18:22:36.368Z,75.60
2018-08-31T18:25:05.080Z,77.00
2018-08-31T18:27:33.788Z,77.80
2018-08-31T18:30:02.388Z,78.20
2018-08-31T18:32:31.376Z,79.60
2018-08-31T18:35:00.148Z,78.60
2018-08-31T18:37:28.722Z,79.60
2018-08-31T18:39:57.442Z,80.40
2018-08-31T18:42:26.040Z,81.00
2018-08-31T18:44:54.444Z,81.60
2018-08-31T18:47:23.185Z,80.90
2018-08-31T18:49:51.878Z,80.90
2018-08-31T18:52:20.466Z,80.50
2018-08-31T18:54:49.237Z,82.00
2018-08-31T18:57:18.284Z,82.80
2018-08-31T18:59:46.732Z,84.40
2018-08-31T19:02:15.290Z,83.70
2018-08-31T19:04:43.724Z,84.30
2018-08-31T19:07:12.547Z,84.60
2018-08-31T19:09:41.057Z,84.00
2018-08-31T19:12:09.446Z,84.20
2018-08-31T19:14:44.732Z,84.70
2018-08-31T19:17:13.136Z,85.20
2018-08-31T19:19:42.224Z,87.30
2018-08-31T19:22:10.801Z,87.70
2018-08-31T19:24:39.345Z,87.10
2018-08-31T19:27:08.524Z,87.40
2018-08-31T19:29:37.085Z,88.60
2018-08-31T19:32:05.761Z,88.70
2018-08-31T19:34:34.260Z,87.80
2018-08-31T19:37:03.516Z,88.30
2018-08-31T19:39:31.965Z,88.70
2018-08-31T19:42:00.608Z,89.00
2018-08-31T19:44:29.180Z,88.40
2018-08-31T19:46:57.703Z,88.20
2018-08-31T19:49:26.356Z,89.00
2018-08-31T19:51:54.966Z,89.30
2018-08-31T19:54:23.656Z,89.40
2018-08-31T19:56:52.418Z,89.50
2018-08-31T19:59:21.013Z,89.30
2018-08-31T20:01:49.433Z,89.70
2018-08-31T20:04:18.080Z,90.20
2018-08-31T20:06:47.038Z,89.50
2018-08-31T20:09:15.669Z,89.50
2018-08-31T20:11:45.169Z,89.90
2018-08-31T20:14:13.634Z,89.50
2018-08-31T20:16:42.172Z,90.00
2018-08-31T20:19:11.346Z,89.80
2018-08-31T20:21:40.575Z,89.30
2018-08-31T20:24:11.081Z,89.90
2018-08-31T20:26:40.040Z,89.20
2018-08-31T20:29:08.614Z,90.00
2018-08-31T20:31:37.235Z,89.50
2018-08-31T20:34:06.344Z,88.60
2018-08-31T20:36:34.782Z,89.00
2018-08-31T20:39:04.134Z,88.90
2018-08-31T20:41:32.672Z,89.20
2018-08-31T20:44:01.221Z,88.60
2018-08-31T20:46:29.920Z,88.10
2018-08-31T20:48:58.396Z,89.00
2018-08-31T20:51:27.029Z,88.40
2018-08-31T20:53:55.700Z,87.30
2018-08-31T20:56:24.421Z,87.10
2018-08-31T20:58:52.863Z,87.00
2018-08-31T21:01:23.224Z,87.00
2018-08-31T21:03:51.785Z,87.30
2018-08-31T21:06:20.537Z,86.50
2018-08-31T21:08:49.245Z,87.20
2018-08-31T21:11:18.297Z,86.10
2018-08-31T21:13:46.695Z,85.50
2018-08-31T21:16:15.092Z,85.20
2018-08-31T21:18:43.780Z,84.80
2018-08-31T21:21:12.982Z,85.10
2018-08-31T21:23:42.176Z,85.10
2018-08-31T21:26:10.753Z,84.90
2018-08-31T21:28:39.368Z,84.70
2018-08-31T21:31:07.809Z,85.10
2018-08-31T21:33:36.345Z,85.00
2018-08-31T21:36:04.797Z,84.90
2018-08-31T21:38:33.360Z,84.50
2018-08-31T21:41:01.864Z,84.90
2018-08-31T21:43:30.425Z,85.50
2018-08-31T21:45:58.926Z,85.20
2018-08-31T21:48:28.020Z,85.60
2018-08-31T21:50:57.549Z,85.30
2018-08-31T21:53:26.856Z,84.70
2018-08-31T21:55:55.407Z,84.80
2018-08-31T21:58:23.817Z,85.00
2018-08-31T22:00:56.482Z,85.20
2018-08-31T22:03:25.089Z,84.90
2018-08-31T22:05:54.252Z,85.60
2018-08-31T22:08:22.794Z,85.60
2018-08-31T22:10:51.449Z,85.70
2018-08-31T22:13:20.216Z,85.90
2018-08-31T22:15:48.811Z,86.10
2018-08-31T22:18:17.382Z,86.10
2018-08-31T22:20:46.639Z,86.60
2018-08-31T22:23:15.144Z,86.90
2018-08-31T22:25:43.868Z,88.00
2018-08-31T22:28:13.248Z,88.60
2018-08-31T22:30:41.733Z,88.40
2018-08-31T22:33:10.200Z,89.70
2018-08-31T22:35:38.858Z,90.40
2018-08-31T22:38:07.464Z,90.20
2018-08-31T22:40:36.092Z,90.00
2018-08-31T22:43:04.844Z,90.30
2018-08-31T22:45:33.330Z,90.40
2018-08-31T22:48:02.436Z,90.30
2018-08-31T22:50:30.840Z,90.40
2018-08-31T22:53:00.068Z,90.30
2018-08-31T22:55:29.143Z,90.60
2018-08-31T22:57:58.115Z,90.70
2018-08-31T23:00:27.590Z,91.00
2018-08-31T23:02:56.808Z,91.00
2018-08-31T23:05:25.208Z,91.10
2018-08-31T23:08:04.120Z,90.80
2018-08-31T23:10:33.740Z,91.20
2018-08-31T23:13:03.148Z,91.50
2018-08-31T23:15:31.720Z,91.30
2018-08-31T23:18:00.128Z,91.60
2018-08-31T23:20:28.536Z,91.80
2018-08-31T23:23:02.585Z,91.80
2018-08-31T23:25:36.537Z,91.80
